Terminal Aerodrome Forecast
Issued by NWS Green Bay, WI

Home | Current Version | Previous Version | Graphics & Text | Print | Product List | Glossary On
Versions: 1 2 3 4 5 6 7 8 9 10 11 12 13
000
FTUS43 KGRB 040254 AAB
TAFGRB
TAF AMD
KGRB 040254Z 0403/0424 32008KT P6SM VCSH BKN070
      TEMPO 0403/0404 5SM -RA BKN040
     FM040600 35011G15KT P6SM SCT025 BKN040
     FM041300 34016G26KT P6SM BKN035=

USA.gov is the U.S. government's official web portal to all federal, state and local government web resources and services.